createdAt,value
2018-12-02T00:01:07.175Z,5.45
2018-12-02T00:04:12.337Z,5.05
2018-12-02T00:07:16.346Z,5.10
2018-12-02T00:10:20.918Z,5.42
2018-12-02T00:13:24.885Z,5.03
2018-12-02T00:16:28.899Z,5.53
2018-12-02T00:19:32.912Z,5.17
2018-12-02T00:22:36.903Z,5.20
2018-12-02T00:25:40.938Z,5.35
2018-12-02T00:28:44.955Z,5.07
2018-12-02T00:31:49.190Z,5.08
2018-12-02T00:34:53.191Z,4.97
2018-12-02T00:37:59.371Z,4.90
2018-12-02T00:41:03.363Z,5.12
2018-12-02T00:44:07.367Z,4.80
2018-12-02T00:47:11.395Z,4.55
2018-12-02T00:50:17.031Z,4.50
2018-12-02T00:53:21.054Z,4.70
2018-12-02T00:56:24.206Z,4.62
2018-12-02T00:59:27.760Z,4.67
2018-12-02T01:02:31.831Z,4.20
2018-12-02T01:05:35.783Z,4.30
2018-12-02T01:08:39.786Z,5.10
2018-12-02T01:11:43.815Z,4.72
2018-12-02T01:14:47.815Z,4.65
2018-12-02T01:17:51.931Z,4.50
2018-12-02T01:20:55.859Z,4.65
2018-12-02T01:23:59.914Z,4.40
2018-12-02T01:27:03.896Z,4.30
2018-12-02T01:30:15.591Z,4.67
2018-12-02T01:33:19.606Z,4.58
2018-12-02T01:36:23.622Z,4.50
2018-12-02T01:39:27.634Z,4.42
2018-12-02T01:42:31.638Z,3.98
2018-12-02T01:45:35.768Z,4.65
2018-12-02T01:48:39.776Z,4.70
2018-12-02T01:51:43.792Z,4.80
2018-12-02T01:54:48.020Z,5.10
2018-12-02T01:57:52.738Z,5.22
2018-12-02T02:00:56.839Z,4.80
2018-12-02T02:04:00.963Z,4.87
2018-12-02T02:07:05.180Z,5.10
2018-12-02T02:10:12.339Z,5.40
2018-12-02T02:13:16.304Z,4.92
2018-12-02T02:16:20.344Z,4.53
2018-12-02T02:19:24.323Z,4.65
2018-12-02T02:22:28.325Z,5.15
2018-12-02T02:25:32.455Z,4.75
2018-12-02T02:28:36.991Z,5.23
2018-12-02T02:31:41.000Z,4.83
2018-12-02T02:34:45.001Z,4.77
2018-12-02T02:37:49.740Z,4.73
2018-12-02T02:40:53.755Z,4.77
2018-12-02T02:43:57.949Z,5.17
2018-12-02T02:47:01.989Z,5.40
2018-12-02T02:50:11.197Z,4.95
2018-12-02T02:53:15.239Z,4.63
2018-12-02T02:56:19.278Z,5.20
2018-12-02T02:59:23.272Z,4.77
2018-12-02T03:02:27.407Z,4.77
2018-12-02T03:05:31.395Z,4.90
2018-12-02T03:08:35.408Z,5.58
2018-12-02T03:11:39.431Z,4.85
2018-12-02T03:14:43.433Z,5.05
2018-12-02T03:17:47.653Z,5.33
2018-12-02T03:20:51.694Z,5.37
2018-12-02T03:23:55.719Z,5.40
2018-12-02T03:26:59.703Z,5.50
2018-12-02T03:30:04.764Z,5.13
2018-12-02T03:33:08.756Z,4.87
2018-12-02T03:36:12.787Z,4.90
2018-12-02T03:39:16.782Z,4.70
2018-12-02T03:42:20.830Z,4.90
2018-12-02T03:45:28.303Z,4.72
2018-12-02T03:48:32.297Z,5.50
2018-12-02T03:51:36.359Z,5.07
2018-12-02T03:54:40.328Z,5.30
2018-12-02T03:57:44.542Z,5.00
2018-12-02T04:00:48.712Z,4.80
2018-12-02T04:03:52.680Z,4.90
2018-12-02T04:06:56.926Z,4.83
2018-12-02T04:10:01.137Z,4.63
2018-12-02T04:13:05.371Z,4.73
2018-12-02T04:16:09.360Z,5.00
2018-12-02T04:19:13.407Z,5.15
2018-12-02T04:22:17.377Z,4.23
2018-12-02T04:25:25.359Z,4.47
2018-12-02T04:28:29.632Z,4.90
2018-12-02T04:31:33.637Z,4.53
2018-12-02T04:34:37.721Z,4.53
2018-12-02T04:37:41.859Z,4.60
2018-12-02T04:40:46.591Z,4.67
2018-12-02T04:43:50.613Z,4.37
2018-12-02T04:46:54.688Z,4.87
2018-12-02T04:49:58.831Z,4.50
2018-12-02T04:53:02.863Z,4.72
2018-12-02T04:56:07.122Z,4.67
2018-12-02T04:59:11.090Z,4.60
2018-12-02T05:02:15.139Z,4.90
2018-12-02T05:05:20.911Z,4.47
2018-12-02T05:08:24.893Z,4.60
2018-12-02T05:11:28.879Z,4.47
2018-12-02T05:14:32.945Z,4.17
2018-12-02T05:17:36.909Z,4.50
2018-12-02T05:20:40.963Z,4.17
2018-12-02T05:23:44.931Z,4.73
2018-12-02T05:26:49.283Z,4.80
2018-12-02T05:29:53.279Z,4.17
2018-12-02T05:32:57.340Z,4.37
2018-12-02T05:36:01.918Z,4.50
2018-12-02T05:39:09.463Z,4.33
2018-12-02T05:42:18.585Z,4.57
2018-12-02T05:45:22.946Z,4.70
2018-12-02T05:48:26.979Z,4.90
2018-12-02T05:51:31.042Z,4.97
2018-12-02T05:54:35.023Z,4.73
2018-12-02T05:57:39.071Z,4.43
2018-12-02T06:00:43.128Z,4.50
2018-12-02T06:03:47.163Z,4.57
2018-12-02T06:06:51.221Z,4.80
2018-12-02T06:09:55.182Z,4.63
2018-12-02T06:12:59.226Z,4.13
2018-12-02T06:16:03.229Z,4.40
2018-12-02T06:19:07.295Z,4.50
2018-12-02T06:22:11.247Z,4.60
2018-12-02T06:25:15.604Z,4.30
2018-12-02T06:28:19.574Z,4.63
2018-12-02T06:31:23.632Z,4.67
2018-12-02T06:34:27.618Z,4.33
2018-12-02T06:37:31.650Z,4.60
2018-12-02T06:40:35.671Z,3.97
2018-12-02T06:43:39.660Z,3.90
2018-12-02T06:46:43.703Z,4.20
2018-12-02T06:49:47.679Z,4.07
2018-12-02T06:52:52.032Z,4.00
2018-12-02T06:56:02.275Z,4.17
2018-12-02T06:59:16.743Z,4.13
2018-12-02T07:02:38.864Z,4.17
2018-12-02T07:05:45.338Z,4.40
2018-12-02T07:08:49.339Z,4.17
2018-12-02T07:11:53.471Z,3.70
2018-12-02T07:14:57.603Z,3.93
2018-12-02T07:18:03.820Z,4.20
2018-12-02T07:21:11.356Z,4.00
2018-12-02T07:24:18.446Z,4.23
2018-12-02T07:27:22.586Z,4.30
2018-12-02T07:30:26.558Z,3.80
2018-12-02T07:33:30.683Z,3.90
2018-12-02T07:36:34.708Z,3.60
2018-12-02T07:39:47.540Z,4.10
2018-12-02T07:42:51.435Z,3.67
2018-12-02T07:45:55.503Z,3.72
2018-12-02T07:48:59.467Z,3.40
2018-12-02T07:52:03.499Z,3.58
2018-12-02T07:55:08.775Z,4.07
2018-12-02T07:58:16.889Z,4.37
2018-12-02T08:01:21.052Z,4.00
2018-12-02T08:04:25.087Z,3.90
2018-12-02T08:07:29.077Z,4.33
2018-12-02T08:10:33.319Z,3.77
2018-12-02T08:13:37.302Z,4.73
2018-12-02T08:16:41.379Z,3.83
2018-12-02T08:19:45.333Z,4.42
2018-12-02T08:22:51.435Z,4.30
2018-12-02T08:25:53.679Z,4.50
2018-12-02T08:28:57.716Z,4.25
2018-12-02T08:32:01.734Z,4.43
2018-12-02T08:35:06.027Z,4.05
2018-12-02T08:38:11.199Z,4.63
2018-12-02T08:41:15.279Z,4.20
2018-12-02T08:44:19.323Z,4.00
2018-12-02T08:47:23.355Z,4.50
2018-12-02T08:50:27.310Z,4.17
2018-12-02T08:53:31.407Z,4.28
2018-12-02T08:56:35.355Z,4.05
2018-12-02T08:59:39.398Z,4.33
2018-12-02T09:02:44.150Z,4.62
2018-12-02T09:05:48.135Z,4.10
2018-12-02T09:08:52.119Z,4.47
2018-12-02T09:11:56.175Z,3.93
2018-12-02T09:15:00.326Z,3.90
2018-12-02T09:18:04.355Z,3.75
2018-12-02T09:21:08.554Z,3.70
2018-12-02T09:24:12.507Z,3.90
2018-12-02T09:27:16.542Z,4.05
2018-12-02T09:30:22.891Z,4.10
2018-12-02T09:33:26.943Z,3.98
2018-12-02T09:36:30.911Z,3.50
2018-12-02T09:39:34.955Z,3.52
2018-12-02T09:42:39.159Z,3.75
2018-12-02T09:45:43.396Z,4.03
2018-12-02T09:48:47.372Z,4.28
2018-12-02T09:51:51.419Z,3.83
2018-12-02T09:54:55.415Z,3.65
2018-12-02T09:57:59.361Z,3.65
2018-12-02T10:01:03.379Z,3.70
2018-12-02T10:04:07.488Z,3.75
2018-12-02T10:07:11.494Z,3.70
2018-12-02T10:10:22.351Z,3.70
2018-12-02T10:13:23.150Z,3.33
2018-12-02T10:16:27.103Z,3.40
2018-12-02T10:19:31.115Z,2.85
2018-12-02T10:22:35.123Z,3.12
2018-12-02T10:25:39.235Z,3.20
2018-12-02T10:28:43.242Z,3.20
2018-12-02T10:31:47.371Z,3.42
2018-12-02T10:34:51.378Z,3.47
2018-12-02T10:37:55.595Z,3.40
2018-12-02T10:40:59.623Z,3.35
2018-12-02T10:44:03.642Z,3.50
2018-12-02T10:47:07.642Z,3.10
2018-12-02T10:50:15.419Z,3.22
2018-12-02T10:53:20.800Z,3.10
2018-12-02T10:56:24.818Z,2.90
2018-12-02T10:59:28.818Z,3.58
2018-12-02T11:02:32.867Z,3.00
2018-12-02T11:05:36.859Z,3.65
2018-12-02T11:08:41.023Z,3.80
2018-12-02T11:11:45.154Z,3.70
2018-12-02T11:14:49.111Z,3.92
2018-12-02T11:17:53.187Z,3.37
2018-12-02T11:20:57.238Z,3.80
2018-12-02T11:24:01.239Z,4.65
2018-12-02T11:27:05.560Z,5.20
2018-12-02T11:30:15.484Z,4.87
2018-12-02T11:33:19.527Z,4.75
2018-12-02T11:36:23.554Z,4.47
2018-12-02T11:39:27.708Z,4.53
2018-12-02T11:42:31.686Z,4.20
2018-12-02T11:45:35.695Z,4.33
2018-12-02T11:48:39.715Z,4.72
2018-12-02T11:51:43.715Z,4.28
2018-12-02T11:54:47.895Z,4.72
2018-12-02T11:57:52.051Z,4.28
2018-12-02T12:00:56.386Z,4.90
2018-12-02T12:04:00.402Z,4.37
2018-12-02T12:07:04.549Z,5.08
2018-12-02T12:10:28.097Z,4.28
2018-12-02T12:13:32.107Z,4.80
2018-12-02T12:16:36.159Z,5.10
2018-12-02T12:19:40.129Z,4.33
2018-12-02T12:22:44.155Z,4.33
2018-12-02T12:25:48.251Z,4.42
2018-12-02T12:28:52.279Z,4.00
2018-12-02T12:31:56.347Z,4.53
2018-12-02T12:35:00.295Z,4.30
2018-12-02T12:38:04.318Z,4.78
2018-12-02T12:41:09.146Z,3.80
2018-12-02T12:44:13.174Z,4.25
2018-12-02T12:47:17.198Z,3.92
2018-12-02T12:50:21.188Z,4.28
2018-12-02T12:53:25.216Z,3.62
2018-12-02T12:56:29.215Z,3.90
2018-12-02T12:59:33.235Z,3.77
2018-12-02T13:02:37.355Z,3.75
2018-12-02T13:05:41.362Z,3.65
2018-12-02T13:08:45.389Z,3.55
2018-12-02T13:11:49.382Z,3.90
2018-12-02T13:14:53.415Z,3.87
2018-12-02T13:17:58.439Z,3.52
2018-12-02T13:21:02.570Z,3.87
2018-12-02T13:24:06.627Z,4.12
2018-12-02T13:27:10.755Z,5.28
2018-12-02T13:30:16.535Z,6.60
2018-12-02T13:33:20.507Z,6.67
2018-12-02T13:36:24.535Z,6.60
2018-12-02T13:39:28.546Z,5.12
2018-12-02T13:42:32.557Z,4.53
2018-12-02T13:45:36.587Z,4.53
2018-12-02T13:48:40.583Z,3.90
2018-12-02T13:51:44.611Z,4.72
2018-12-02T13:54:48.725Z,4.62
2018-12-02T13:57:52.731Z,3.85
2018-12-02T14:00:56.757Z,4.30
2018-12-02T14:04:00.755Z,3.42
2018-12-02T14:07:04.891Z,3.60
2018-12-02T14:10:10.919Z,3.47
2018-12-02T14:13:22.539Z,3.65
2018-12-02T14:16:37.983Z,3.90
2018-12-02T14:19:43.931Z,3.60
2018-12-02T14:22:47.931Z,3.50
2018-12-02T14:25:52.010Z,3.30
2018-12-02T14:28:59.579Z,3.42
2018-12-02T14:32:06.598Z,3.20
2018-12-02T14:35:10.707Z,3.20
2018-12-02T14:38:14.759Z,3.17
2018-12-02T14:41:18.723Z,3.05
2018-12-02T14:44:22.783Z,3.25
2018-12-02T14:47:26.775Z,3.00
2018-12-02T14:50:30.808Z,3.67
2018-12-02T14:53:34.860Z,3.00
2018-12-02T14:56:39.045Z,2.77
2018-12-02T14:59:43.021Z,2.67
2018-12-02T15:02:47.339Z,3.17
2018-12-02T15:05:52.091Z,2.77
2018-12-02T15:08:56.115Z,2.77
2018-12-02T15:12:00.255Z,3.08
2018-12-02T15:15:04.518Z,3.10
2018-12-02T15:18:08.852Z,2.67
2018-12-02T15:21:13.957Z,3.12
2018-12-02T15:24:18.043Z,2.70
2018-12-02T15:27:22.028Z,2.42
2018-12-02T15:30:26.140Z,2.47
2018-12-02T15:33:30.247Z,2.33
2018-12-02T15:36:34.396Z,2.45
2018-12-02T15:39:38.392Z,3.00
2018-12-02T15:42:43.877Z,2.60
2018-12-02T15:45:47.883Z,2.37
2018-12-02T15:52:17.692Z,2.67
2018-12-02T15:55:25.785Z,2.77
2018-12-02T15:58:29.860Z,2.80
2018-12-02T16:01:33.976Z,2.92
2018-12-02T16:04:37.957Z,3.45
2018-12-02T16:07:41.988Z,3.08
2018-12-02T16:10:46.019Z,2.50
2018-12-02T16:13:50.027Z,2.80
2018-12-02T16:16:54.082Z,3.12
2018-12-02T16:19:58.113Z,2.75
2018-12-02T16:23:02.309Z,2.70
2018-12-02T16:26:06.464Z,2.95
2018-12-02T16:29:10.496Z,2.85
2018-12-02T16:32:14.758Z,2.85
2018-12-02T16:35:19.365Z,2.45
2018-12-02T16:38:23.335Z,2.40
2018-12-02T16:41:27.970Z,2.67
2018-12-02T16:44:32.083Z,2.75
2018-12-02T16:47:36.394Z,2.58
2018-12-02T16:50:41.758Z,2.80
2018-12-02T16:53:45.751Z,2.40
2018-12-02T16:56:50.079Z,2.60
2018-12-02T16:59:54.203Z,2.40
2018-12-02T17:02:58.266Z,2.40
2018-12-02T17:06:02.218Z,2.37
2018-12-02T17:09:16.903Z,2.50
2018-12-02T17:12:22.468Z,2.30
2018-12-02T17:15:26.445Z,2.50
2018-12-02T17:18:30.578Z,2.15
2018-12-02T17:21:34.687Z,2.70
2018-12-02T17:24:38.703Z,2.10
2018-12-02T17:27:44.247Z,2.08
2018-12-02T17:30:52.528Z,2.75
2018-12-02T17:33:56.547Z,2.80
2018-12-02T17:37:00.605Z,2.70
2018-12-02T17:40:08.769Z,3.67
2018-12-02T17:43:13.627Z,3.90
2018-12-02T17:46:17.805Z,4.28
2018-12-02T17:49:21.995Z,4.03
2018-12-02T17:52:26.000Z,3.95
2018-12-02T17:55:30.024Z,4.28
2018-12-02T17:58:34.136Z,4.50
2018-12-02T18:01:38.131Z,4.40
2018-12-02T18:04:42.180Z,4.47
2018-12-02T18:07:46.167Z,4.00
2018-12-02T18:10:50.297Z,4.20
2018-12-02T18:13:54.402Z,4.42
2018-12-02T18:16:58.331Z,4.17
2018-12-02T18:20:02.360Z,3.80
2018-12-02T18:23:06.556Z,3.70
2018-12-02T18:26:10.571Z,3.90
2018-12-02T18:29:14.671Z,4.05
2018-12-02T18:32:19.295Z,3.98
2018-12-02T18:35:35.764Z,3.52
2018-12-02T18:38:41.496Z,3.95
2018-12-02T18:41:47.991Z,3.70
2018-12-02T18:44:52.112Z,3.60
2018-12-02T18:48:04.275Z,4.15
2018-12-02T18:51:08.312Z,3.70
2018-12-02T18:54:12.409Z,4.12
2018-12-02T18:57:16.628Z,3.65
2018-12-02T19:00:25.871Z,3.77
2018-12-02T19:03:29.963Z,3.75
2018-12-02T19:06:34.867Z,3.80
2018-12-02T19:09:39.101Z,3.50
2018-12-02T19:12:43.244Z,3.87
2018-12-02T19:15:47.484Z,3.80
2018-12-02T19:18:51.748Z,4.33
2018-12-02T19:21:56.659Z,4.00
2018-12-02T19:25:00.791Z,3.95
2018-12-02T19:28:04.819Z,3.70
2018-12-02T19:31:08.867Z,3.85
2018-12-02T19:34:13.107Z,3.58
2018-12-02T19:37:17.075Z,3.50
2018-12-02T19:40:21.304Z,3.98
2018-12-02T19:43:25.291Z,3.60
2018-12-02T19:46:29.427Z,3.30
2018-12-02T19:49:34.259Z,3.50
2018-12-02T19:52:38.271Z,4.12
2018-12-02T19:55:42.287Z,3.52
2018-12-02T19:58:46.340Z,3.95
2018-12-02T20:01:50.418Z,3.70
2018-12-02T20:04:54.434Z,3.35
2018-12-02T20:07:59.970Z,3.27
2018-12-02T20:11:03.976Z,3.20
2018-12-02T20:14:08.019Z,3.42
2018-12-02T20:17:12.128Z,2.80
2018-12-02T20:20:22.564Z,3.05
2018-12-02T20:23:31.635Z,2.72
2018-12-02T20:26:35.662Z,2.55
2018-12-02T20:29:39.805Z,2.92
2018-12-02T20:32:43.778Z,2.83
2018-12-02T20:35:47.891Z,2.70
2018-12-02T20:38:51.904Z,2.52
2018-12-02T20:41:56.019Z,2.60
2018-12-02T20:45:00.227Z,2.55
2018-12-02T20:48:04.348Z,2.47
2018-12-02T20:51:08.358Z,2.72
2018-12-02T20:54:12.475Z,2.37
2018-12-02T20:57:16.487Z,2.52
2018-12-02T21:00:20.498Z,2.25
2018-12-02T21:03:27.153Z,2.58
2018-12-02T21:06:31.788Z,2.40
2018-12-02T21:09:35.395Z,2.30
2018-12-02T21:12:40.423Z,2.27
2018-12-02T21:15:44.736Z,2.20
2018-12-02T21:18:48.951Z,2.10
2018-12-02T21:21:52.912Z,2.35
2018-12-02T21:24:56.915Z,2.02
2018-12-02T21:28:00.939Z,2.35
2018-12-02T21:31:05.063Z,2.05
2018-12-02T21:34:09.081Z,2.00
2018-12-02T21:37:13.186Z,1.98
2018-12-02T21:40:17.623Z,2.17
2018-12-02T21:43:21.651Z,2.12
2018-12-02T21:46:25.679Z,2.10
2018-12-02T21:49:29.659Z,2.10
2018-12-02T21:52:33.783Z,2.08
2018-12-02T21:55:37.994Z,1.95
2018-12-02T21:58:42.015Z,2.10
2018-12-02T22:01:46.074Z,2.00
2018-12-02T22:04:50.139Z,1.82
2018-12-02T22:07:54.262Z,2.15
2018-12-02T22:10:59.411Z,2.33
2018-12-02T22:14:03.551Z,2.00
2018-12-02T22:17:07.523Z,2.00
2018-12-02T22:20:15.111Z,2.08
2018-12-02T22:23:19.134Z,1.98
2018-12-02T22:26:23.159Z,1.85
2018-12-02T22:29:27.163Z,1.85
2018-12-02T22:32:31.179Z,1.57
2018-12-02T22:35:35.295Z,1.50
2018-12-02T22:38:39.320Z,1.60
2018-12-02T22:41:43.371Z,2.00
2018-12-02T22:44:47.403Z,2.10
2018-12-02T22:47:51.706Z,1.75
2018-12-02T22:50:56.239Z,1.65
2018-12-02T22:54:00.239Z,1.80
2018-12-02T22:57:04.316Z,1.72
2018-12-02T23:00:20.430Z,1.70
2018-12-02T23:03:24.539Z,1.60
2018-12-02T23:06:28.647Z,1.70
2018-12-02T23:09:33.792Z,1.77
2018-12-02T23:12:37.904Z,1.60
2018-12-02T23:15:42.773Z,1.67
2018-12-02T23:18:46.926Z,1.42
2018-12-02T23:21:50.911Z,1.70
2018-12-02T23:24:55.090Z,1.72
2018-12-02T23:27:59.106Z,1.32
2018-12-02T23:31:03.339Z,1.42
2018-12-02T23:34:07.604Z,1.40
2018-12-02T23:37:11.942Z,1.50
2018-12-02T23:40:20.284Z,1.42
2018-12-02T23:43:24.383Z,1.70
2018-12-02T23:46:28.458Z,1.30
2018-12-02T23:49:32.523Z,1.30
2018-12-02T23:52:36.863Z,1.50
2018-12-02T23:55:40.978Z,1.60
2018-12-02T23:58:45.091Z,1.37
